createdAt,value
2019-02-27T00:00:54.114Z,1023.87
2019-02-27T00:01:54.147Z,1023.92
2019-02-27T00:02:56.168Z,1023.88
2019-02-27T00:03:54.083Z,1023.89
2019-02-27T00:04:54.145Z,1023.95
2019-02-27T00:05:54.057Z,1023.94
2019-02-27T00:06:54.045Z,1023.89
2019-02-27T00:07:54.710Z,1023.92
2019-02-27T00:08:54.039Z,1023.90
2019-02-27T00:09:54.064Z,1023.91
2019-02-27T00:10:54.007Z,1023.88
2019-02-27T00:11:53.992Z,1023.88
2019-02-27T00:12:53.991Z,1023.86
2019-02-27T00:13:57.656Z,1023.86
2019-02-27T00:14:53.965Z,1023.85
2019-02-27T00:15:53.951Z,1023.84
2019-02-27T00:16:53.941Z,1023.80
2019-02-27T00:17:53.948Z,1023.79
2019-02-27T00:18:58.539Z,1023.74
2019-02-27T00:19:54.953Z,1023.74
2019-02-27T00:20:53.932Z,1023.75
2019-02-27T00:21:53.887Z,1023.75
2019-02-27T00:22:53.930Z,1023.70
2019-02-27T00:23:56.654Z,1023.73
2019-02-27T00:24:53.847Z,1023.71
2019-02-27T00:25:53.841Z,1023.70
2019-02-27T00:26:53.832Z,1023.70
2019-02-27T00:27:53.872Z,1023.71
2019-02-27T00:28:55.999Z,1023.67
2019-02-27T00:29:53.810Z,1023.63
2019-02-27T00:30:53.785Z,1023.63
2019-02-27T00:31:53.822Z,1023.61
2019-02-27T00:32:53.803Z,1023.64
2019-02-27T00:33:53.804Z,1023.60
2019-02-27T00:34:53.744Z,1023.61
2019-02-27T00:35:53.751Z,1023.60
2019-02-27T00:36:53.726Z,1023.61
2019-02-27T00:37:53.709Z,1023.61
2019-02-27T00:38:57.702Z,1023.56
2019-02-27T00:39:53.744Z,1023.59
2019-02-27T00:40:53.676Z,1023.61
2019-02-27T00:41:53.667Z,1023.57
2019-02-27T00:42:54.441Z,1023.58
2019-02-27T00:43:53.638Z,1023.58
2019-02-27T00:44:53.626Z,1023.59
2019-02-27T00:45:53.680Z,1023.55
2019-02-27T00:46:53.609Z,1023.58
2019-02-27T00:47:53.826Z,1023.55
2019-02-27T00:48:53.587Z,1023.57
2019-02-27T00:49:53.639Z,1023.57
2019-02-27T00:50:53.607Z,1023.57
2019-02-27T00:51:53.612Z,1023.50
2019-02-27T00:52:53.540Z,1023.48
2019-02-27T00:53:55.923Z,1023.50
2019-02-27T00:54:53.529Z,1023.46
2019-02-27T00:55:53.513Z,1023.44
2019-02-27T00:56:53.510Z,1023.47
2019-02-27T00:57:54.468Z,1023.43
2019-02-27T00:58:53.479Z,1023.42
2019-02-27T00:59:53.467Z,1023.47
2019-02-27T01:00:53.463Z,1023.45
2019-02-27T01:01:53.445Z,1023.44
2019-02-27T01:02:53.707Z,1023.42
2019-02-27T01:03:53.494Z,1023.46
2019-02-27T01:04:53.422Z,1023.43
2019-02-27T01:05:53.410Z,1023.45
2019-02-27T01:06:53.408Z,1023.39
2019-02-27T01:07:54.210Z,1023.42
2019-02-27T01:08:53.431Z,1023.40
2019-02-27T01:09:53.358Z,1023.39
2019-02-27T01:10:53.390Z,1023.38
2019-02-27T01:11:53.340Z,1023.35
2019-02-27T01:12:57.800Z,1023.39
2019-02-27T01:13:54.369Z,1023.38
2019-02-27T01:14:53.310Z,1023.42
2019-02-27T01:15:53.291Z,1023.37
2019-02-27T01:16:53.288Z,1023.38
2019-02-27T01:17:55.039Z,1023.41
2019-02-27T01:18:53.311Z,1023.37
2019-02-27T01:19:53.294Z,1023.38
2019-02-27T01:20:53.258Z,1023.39
2019-02-27T01:21:53.223Z,1023.41
2019-02-27T01:22:53.278Z,1023.35
2019-02-27T01:23:53.213Z,1023.39
2019-02-27T01:24:53.190Z,1023.36
2019-02-27T01:25:56.119Z,1023.37
2019-02-27T01:26:53.190Z,1023.34
2019-02-27T01:27:53.161Z,1023.32
2019-02-27T01:28:53.201Z,1023.28
2019-02-27T01:29:53.135Z,1023.30
2019-02-27T01:30:53.126Z,1023.25
2019-02-27T01:31:54.970Z,1023.29
2019-02-27T01:32:53.180Z,1023.26
2019-02-27T01:33:53.133Z,1023.23
2019-02-27T01:34:53.092Z,1023.27
2019-02-27T01:35:53.116Z,1023.23
2019-02-27T01:36:54.868Z,1023.23
2019-02-27T01:37:53.105Z,1023.19
2019-02-27T01:38:53.036Z,1023.25
2019-02-27T01:39:53.026Z,1023.15
2019-02-27T01:40:53.049Z,1023.17
2019-02-27T01:41:55.344Z,1023.16
2019-02-27T01:42:53.059Z,1023.08
2019-02-27T01:43:52.988Z,1023.07
2019-02-27T01:44:52.992Z,1023.08
2019-02-27T01:45:54.331Z,1023.09
2019-02-27T01:46:54.556Z,1023.04
2019-02-27T01:47:52.942Z,1023.04
2019-02-27T01:48:52.976Z,1023.06
2019-02-27T01:49:52.913Z,1023.06
2019-02-27T01:50:55.218Z,1023.04
2019-02-27T01:51:52.921Z,1023.01
2019-02-27T01:52:52.886Z,1022.98
2019-02-27T01:53:52.876Z,1022.99
2019-02-27T01:54:52.905Z,1022.93
2019-02-27T01:55:56.218Z,1022.94
2019-02-27T01:56:52.839Z,1022.97
2019-02-27T01:57:52.861Z,1022.93
2019-02-27T01:58:52.821Z,1022.92
2019-02-27T01:59:52.806Z,1022.90
2019-02-27T02:00:56.110Z,1022.89
2019-02-27T02:01:52.802Z,1022.88
2019-02-27T02:02:52.783Z,1022.89
2019-02-27T02:03:52.779Z,1022.85
2019-02-27T02:04:53.809Z,1022.84
2019-02-27T02:05:52.786Z,1022.85
2019-02-27T02:06:52.765Z,1022.83
2019-02-27T02:07:52.759Z,1022.80
2019-02-27T02:08:52.703Z,1022.79
2019-02-27T02:09:55.188Z,1022.79
2019-02-27T02:10:52.684Z,1022.77
2019-02-27T02:11:52.691Z,1022.78
2019-02-27T02:12:52.665Z,1022.79
2019-02-27T02:13:52.670Z,1022.77
2019-02-27T02:14:54.373Z,1022.74
2019-02-27T02:15:52.693Z,1022.72
2019-02-27T02:16:52.616Z,1022.72
2019-02-27T02:17:52.630Z,1022.68
2019-02-27T02:18:52.608Z,1022.68
2019-02-27T02:19:54.286Z,1022.70
2019-02-27T02:20:52.572Z,1022.71
2019-02-27T02:21:52.623Z,1022.71
2019-02-27T02:22:52.557Z,1022.65
2019-02-27T02:23:52.539Z,1022.69
2019-02-27T02:24:54.236Z,1022.66
2019-02-27T02:25:52.525Z,1022.69
2019-02-27T02:26:52.511Z,1022.67
2019-02-27T02:27:52.555Z,1022.59
2019-02-27T02:28:52.516Z,1022.62
2019-02-27T02:29:53.248Z,1022.60
2019-02-27T02:30:52.466Z,1022.62
2019-02-27T02:31:52.454Z,1022.63
2019-02-27T02:32:53.320Z,1022.58
2019-02-27T02:33:52.480Z,1022.56
2019-02-27T02:34:52.418Z,1022.55
2019-02-27T02:35:52.509Z,1022.56
2019-02-27T02:36:52.408Z,1022.54
2019-02-27T02:37:52.388Z,1022.57
2019-02-27T02:38:52.394Z,1022.47
2019-02-27T02:39:54.663Z,1022.47
2019-02-27T02:40:52.358Z,1022.47
2019-02-27T02:41:52.401Z,1022.51
2019-02-27T02:42:52.343Z,1022.47
2019-02-27T02:43:52.325Z,1022.46
2019-02-27T02:44:57.220Z,1022.45
2019-02-27T02:45:53.378Z,1022.47
2019-02-27T02:46:52.297Z,1022.48
2019-02-27T02:47:55.429Z,1022.48
2019-02-27T02:48:52.266Z,1022.40
2019-02-27T02:49:52.274Z,1022.39
2019-02-27T02:50:54.335Z,1022.36
2019-02-27T02:51:52.245Z,1022.39
2019-02-27T02:52:52.231Z,1022.36
2019-02-27T02:53:52.296Z,1022.32
2019-02-27T02:54:52.202Z,1022.29
2019-02-27T02:55:52.200Z,1022.28
2019-02-27T02:56:52.182Z,1022.30
2019-02-27T02:57:52.186Z,1022.29
2019-02-27T02:58:52.159Z,1022.25
2019-02-27T02:59:52.213Z,1022.27
2019-02-27T03:00:52.179Z,1022.25
2019-02-27T03:01:52.168Z,1022.26
2019-02-27T03:02:52.128Z,1022.26
2019-02-27T03:03:52.118Z,1022.16
2019-02-27T03:04:52.089Z,1022.15
2019-02-27T03:05:58.615Z,1022.12
2019-02-27T03:06:53.130Z,1022.11
2019-02-27T03:07:52.064Z,1022.09
2019-02-27T03:08:54.944Z,1022.11
2019-02-27T03:09:52.069Z,1022.10
2019-02-27T03:10:52.021Z,1022.03
2019-02-27T03:11:54.591Z,1022.06
2019-02-27T03:12:52.069Z,1022.06
2019-02-27T03:13:51.991Z,1021.99
2019-02-27T03:14:54.197Z,1022.01
2019-02-27T03:15:52.011Z,1021.99
2019-02-27T03:16:51.958Z,1021.97
2019-02-27T03:17:54.844Z,1022.01
2019-02-27T03:18:51.964Z,1021.99
2019-02-27T03:19:51.937Z,1021.97
2019-02-27T03:20:53.033Z,1022.00
2019-02-27T03:21:51.964Z,1021.98
2019-02-27T03:22:51.894Z,1021.96
2019-02-27T03:23:52.569Z,1021.94
2019-02-27T03:24:51.870Z,1021.94
2019-02-27T03:25:51.858Z,1021.92
2019-02-27T03:26:53.113Z,1021.93
2019-02-27T03:27:51.877Z,1021.94
2019-02-27T03:28:51.850Z,1021.94
2019-02-27T03:29:53.405Z,1021.89
2019-02-27T03:30:51.832Z,1021.87
2019-02-27T03:31:57.776Z,1021.89
2019-02-27T03:32:52.867Z,1021.93
2019-02-27T03:33:51.781Z,1021.91
2019-02-27T03:34:51.847Z,1021.97
2019-02-27T03:35:51.749Z,1021.94
2019-02-27T03:36:51.744Z,1021.93
2019-02-27T03:37:51.732Z,1021.90
2019-02-27T03:38:51.757Z,1021.89
2019-02-27T03:39:51.726Z,1021.87
2019-02-27T03:40:51.704Z,1021.88
2019-02-27T03:41:58.452Z,1021.86
2019-02-27T03:42:52.737Z,1021.85
2019-02-27T03:43:51.708Z,1021.90
2019-02-27T03:44:55.884Z,1021.90
2019-02-27T03:45:52.649Z,1021.92
2019-02-27T03:46:51.628Z,1021.93
2019-02-27T03:47:52.165Z,1021.92
2019-02-27T03:48:51.661Z,1021.96
2019-02-27T03:49:51.601Z,1021.95
2019-02-27T03:50:51.636Z,1021.95
2019-02-27T03:51:51.574Z,1021.95
2019-02-27T03:52:51.601Z,1021.96
2019-02-27T03:53:51.595Z,1021.97
2019-02-27T03:54:56.986Z,1021.94
2019-02-27T03:55:52.592Z,1021.95
2019-02-27T03:56:51.519Z,1021.96
2019-02-27T03:57:54.921Z,1021.92
2019-02-27T03:58:51.499Z,1021.93
2019-02-27T03:59:51.490Z,1021.92
2019-02-27T04:00:53.734Z,1021.91
2019-02-27T04:01:51.515Z,1021.89
2019-02-27T04:02:51.477Z,1021.89
2019-02-27T04:03:55.330Z,1021.92
2019-02-27T04:04:51.440Z,1021.89
2019-02-27T04:05:51.423Z,1021.91
2019-02-27T04:06:53.019Z,1021.90
2019-02-27T04:07:51.447Z,1021.90
2019-02-27T04:08:51.396Z,1021.89
2019-02-27T04:09:55.053Z,1021.93
2019-02-27T04:10:51.378Z,1021.92
2019-02-27T04:11:51.347Z,1021.91
2019-02-27T04:12:52.367Z,1021.92
2019-02-27T04:13:51.340Z,1021.88
2019-02-27T04:14:51.316Z,1021.92
2019-02-27T04:15:53.680Z,1021.93
2019-02-27T04:16:51.302Z,1021.95
2019-02-27T04:17:52.249Z,1021.91
2019-02-27T04:18:51.282Z,1021.97
2019-02-27T04:19:51.264Z,1021.96
2019-02-27T04:20:51.320Z,1021.96
2019-02-27T04:21:51.306Z,1021.99
2019-02-27T04:22:51.236Z,1021.94
2019-02-27T04:23:51.215Z,1021.94
2019-02-27T04:24:56.109Z,1021.93
2019-02-27T04:25:52.197Z,1021.92
2019-02-27T04:26:51.202Z,1021.91
2019-02-27T04:27:55.251Z,1021.94
2019-02-27T04:28:51.159Z,1021.91
2019-02-27T04:29:51.161Z,1021.92
2019-02-27T04:30:51.979Z,1021.87
2019-02-27T04:31:51.129Z,1021.86
2019-02-27T04:32:51.128Z,1021.87
2019-02-27T04:33:51.156Z,1021.84
2019-02-27T04:34:51.100Z,1021.83
2019-02-27T04:35:51.171Z,1021.80
2019-02-27T04:36:51.071Z,1021.82
2019-02-27T04:37:53.848Z,1021.74
2019-02-27T04:38:51.051Z,1021.82
2019-02-27T04:39:51.058Z,1021.78
2019-02-27T04:40:51.068Z,1021.76
2019-02-27T04:41:52.046Z,1021.72
2019-02-27T04:42:51.064Z,1021.77
2019-02-27T04:43:50.993Z,1021.76
2019-02-27T04:44:50.991Z,1021.77
2019-02-27T04:45:50.981Z,1021.77
2019-02-27T04:46:54.825Z,1021.76
2019-02-27T04:47:50.950Z,1021.80
2019-02-27T04:48:51.022Z,1021.77
2019-02-27T04:49:50.937Z,1021.76
2019-02-27T04:50:50.927Z,1021.70
2019-02-27T04:51:51.161Z,1021.66
2019-02-27T04:52:50.894Z,1021.63
2019-02-27T04:53:50.891Z,1021.67
2019-02-27T04:54:50.986Z,1021.63
2019-02-27T04:55:51.318Z,1021.61
2019-02-27T04:56:50.848Z,1021.61
2019-02-27T04:57:50.886Z,1021.65
2019-02-27T04:58:50.829Z,1021.57
2019-02-27T04:59:52.323Z,1021.60
2019-02-27T05:00:50.849Z,1021.59
2019-02-27T05:01:50.842Z,1021.57
2019-02-27T05:02:53.433Z,1021.55
2019-02-27T05:03:50.788Z,1021.52
2019-02-27T05:04:50.775Z,1021.53
2019-02-27T05:05:50.760Z,1021.53
2019-02-27T05:06:50.755Z,1021.55
2019-02-27T05:07:54.144Z,1021.52
2019-02-27T05:08:50.717Z,1021.55
2019-02-27T05:09:50.746Z,1021.57
2019-02-27T05:10:50.747Z,1021.51
2019-02-27T05:11:50.686Z,1021.49
2019-02-27T05:12:50.681Z,1021.51
2019-02-27T05:13:54.102Z,1021.51
2019-02-27T05:14:50.659Z,1021.45
2019-02-27T05:15:50.705Z,1021.43
2019-02-27T05:16:50.629Z,1021.43
2019-02-27T05:17:53.048Z,1021.41
2019-02-27T05:18:50.612Z,1021.41
2019-02-27T05:19:52.055Z,1021.42
2019-02-27T05:20:50.599Z,1021.40
2019-02-27T05:21:52.451Z,1021.38
2019-02-27T05:22:50.621Z,1021.41
2019-02-27T05:23:50.589Z,1021.41
2019-02-27T05:24:50.541Z,1021.40
2019-02-27T05:25:50.537Z,1021.41
2019-02-27T05:26:50.518Z,1021.39
2019-02-27T05:27:50.506Z,1021.38
2019-02-27T05:28:50.562Z,1021.36
2019-02-27T05:29:50.544Z,1021.41
2019-02-27T05:30:50.479Z,1021.39
2019-02-27T05:31:53.250Z,1021.40
2019-02-27T05:32:50.466Z,1021.42
2019-02-27T05:33:50.441Z,1021.46
2019-02-27T05:34:50.564Z,1021.50
2019-02-27T05:35:50.482Z,1021.47
2019-02-27T05:36:50.424Z,1021.53
2019-02-27T05:37:50.402Z,1021.50
2019-02-27T05:38:50.391Z,1021.51
2019-02-27T05:39:51.145Z,1021.56
2019-02-27T05:40:50.769Z,1021.53
2019-02-27T05:41:50.370Z,1021.53
2019-02-27T05:42:50.401Z,1021.51
2019-02-27T05:43:50.329Z,1021.50
2019-02-27T05:44:50.319Z,1021.51
2019-02-27T05:45:50.314Z,1021.48
2019-02-27T05:46:50.349Z,1021.48
2019-02-27T05:47:50.290Z,1021.45
2019-02-27T05:48:50.885Z,1021.47
2019-02-27T05:49:50.317Z,1021.44
2019-02-27T05:50:50.287Z,1021.45
2019-02-27T05:51:50.244Z,1021.43
2019-02-27T05:52:50.230Z,1021.48
2019-02-27T05:53:50.270Z,1021.45
2019-02-27T05:54:50.219Z,1021.45
2019-02-27T05:55:50.210Z,1021.47
2019-02-27T05:56:50.345Z,1021.45
2019-02-27T05:57:50.179Z,1021.43
2019-02-27T05:58:50.167Z,1021.45
2019-02-27T05:59:50.208Z,1021.43
2019-02-27T06:00:50.151Z,1021.43
2019-02-27T06:01:50.150Z,1021.45
2019-02-27T06:02:50.151Z,1021.41
2019-02-27T06:03:52.298Z,1021.40
2019-02-27T06:04:50.166Z,1021.37
2019-02-27T06:05:50.123Z,1021.41
2019-02-27T06:06:50.080Z,1021.38
2019-02-27T06:07:50.085Z,1021.35
2019-02-27T06:08:50.067Z,1021.33
2019-02-27T06:09:50.115Z,1021.34
2019-02-27T06:10:55.222Z,1021.35
2019-02-27T06:11:51.053Z,1021.33
2019-02-27T06:12:50.015Z,1021.35
2019-02-27T06:13:50.000Z,1021.33
2019-02-27T06:14:49.996Z,1021.37
2019-02-27T06:15:49.984Z,1021.33
2019-02-27T06:16:50.037Z,1021.35
2019-02-27T06:17:50.009Z,1021.37
2019-02-27T06:18:49.960Z,1021.39
2019-02-27T06:19:49.985Z,1021.42
2019-02-27T06:20:49.932Z,1021.41
2019-02-27T06:21:49.920Z,1021.41
2019-02-27T06:22:49.897Z,1021.40
2019-02-27T06:23:49.931Z,1021.43
2019-02-27T06:24:49.905Z,1021.46
2019-02-27T06:25:49.946Z,1021.46
2019-02-27T06:26:49.863Z,1021.48
2019-02-27T06:27:49.971Z,1021.46
2019-02-27T06:28:49.843Z,1021.45
2019-02-27T06:29:49.831Z,1021.42
2019-02-27T06:30:49.837Z,1021.49
2019-02-27T06:31:49.813Z,1021.42
2019-02-27T06:32:49.925Z,1021.40
2019-02-27T06:33:49.787Z,1021.41
2019-02-27T06:34:49.772Z,1021.43
2019-02-27T06:35:49.941Z,1021.38
2019-02-27T06:36:49.745Z,1021.43
2019-02-27T06:37:50.784Z,1021.46
2019-02-27T06:38:49.722Z,1021.46
2019-02-27T06:39:49.716Z,1021.46
2019-02-27T06:40:49.716Z,1021.49
2019-02-27T06:41:50.392Z,1021.48
2019-02-27T06:42:53.447Z,1021.47
2019-02-27T06:43:49.677Z,1021.48
2019-02-27T06:44:49.657Z,1021.48
2019-02-27T06:45:49.650Z,1021.47
2019-02-27T06:46:51.086Z,1021.47
2019-02-27T06:47:49.633Z,1021.46
2019-02-27T06:48:49.626Z,1021.45
2019-02-27T06:49:51.982Z,1021.51
2019-02-27T06:50:50.197Z,1021.47
2019-02-27T06:51:49.589Z,1021.52
2019-02-27T06:52:49.693Z,1021.51
2019-02-27T06:53:49.566Z,1021.55
2019-02-27T06:54:51.921Z,1021.54
2019-02-27T06:55:49.734Z,1021.54
2019-02-27T06:56:49.550Z,1021.51
2019-02-27T06:57:49.558Z,1021.50
2019-02-27T06:58:50.105Z,1021.48
2019-02-27T06:59:49.564Z,1021.43
2019-02-27T07:00:49.519Z,1021.45
2019-02-27T07:01:49.479Z,1021.37
2019-02-27T07:02:49.455Z,1021.37
2019-02-27T07:03:49.449Z,1021.34
2019-02-27T07:04:49.441Z,1021.33
2019-02-27T07:05:49.477Z,1021.31
2019-02-27T07:06:49.419Z,1021.32
2019-02-27T07:07:49.432Z,1021.33
2019-02-27T07:08:49.414Z,1021.24
2019-02-27T07:09:49.393Z,1021.25
2019-02-27T07:10:49.442Z,1021.21
2019-02-27T07:11:49.418Z,1021.24
2019-02-27T07:12:49.387Z,1021.20
2019-02-27T07:13:49.353Z,1021.26
2019-02-27T07:14:49.326Z,1021.18
2019-02-27T07:15:49.324Z,1021.20
2019-02-27T07:16:49.322Z,1021.19
2019-02-27T07:17:49.351Z,1021.18
2019-02-27T07:18:49.286Z,1021.16
2019-02-27T07:19:49.724Z,1021.18
2019-02-27T07:20:49.322Z,1021.21
2019-02-27T07:21:49.261Z,1021.24
2019-02-27T07:22:49.258Z,1021.23
2019-02-27T07:23:49.291Z,1021.21
2019-02-27T07:24:49.279Z,1021.19
2019-02-27T07:25:49.218Z,1021.20
2019-02-27T07:26:50.268Z,1021.18
2019-02-27T07:27:49.200Z,1021.17
2019-02-27T07:28:49.215Z,1021.16
2019-02-27T07:29:49.260Z,1021.12
2019-02-27T07:30:49.167Z,1021.14
2019-02-27T07:31:49.556Z,1021.13
2019-02-27T07:32:49.151Z,1021.14
2019-02-27T07:33:49.235Z,1021.12
2019-02-27T07:34:49.790Z,1021.10
2019-02-27T07:35:49.103Z,1021.14
2019-02-27T07:36:49.108Z,1021.13
2019-02-27T07:37:49.092Z,1021.14
2019-02-27T07:38:49.455Z,1021.14
2019-02-27T07:39:49.067Z,1021.14
2019-02-27T07:40:49.051Z,1021.15
2019-02-27T07:41:49.060Z,1021.13
2019-02-27T07:42:49.072Z,1021.14
2019-02-27T07:43:49.047Z,1021.17
2019-02-27T07:44:49.009Z,1021.09
2019-02-27T07:45:49.005Z,1021.11
2019-02-27T07:46:48.991Z,1021.05
2019-02-27T07:47:48.978Z,1021.05
2019-02-27T07:48:49.010Z,1021.00
2019-02-27T07:49:48.953Z,1021.05
2019-02-27T07:50:49.343Z,1021.02
2019-02-27T07:51:49.054Z,1021.01
2019-02-27T07:52:49.054Z,1021.05
2019-02-27T07:53:51.464Z,1021.01
2019-02-27T07:54:48.938Z,1021.00
2019-02-27T07:55:48.962Z,1021.04
2019-02-27T07:56:48.950Z,1020.99
2019-02-27T07:57:48.882Z,1020.94
2019-02-27T07:58:48.954Z,1020.92
2019-02-27T07:59:48.873Z,1020.93
2019-02-27T08:00:49.829Z,1020.95
2019-02-27T08:01:48.823Z,1020.94
2019-02-27T08:02:48.816Z,1020.98
2019-02-27T08:03:48.803Z,1020.97
2019-02-27T08:04:48.809Z,1020.97
2019-02-27T08:05:48.785Z,1020.96
2019-02-27T08:06:49.039Z,1020.92
2019-02-27T08:07:49.754Z,1020.88
2019-02-27T08:08:48.779Z,1020.87
2019-02-27T08:09:48.801Z,1020.91
2019-02-27T08:10:48.716Z,1020.94
2019-02-27T08:11:48.800Z,1020.89
2019-02-27T08:12:48.697Z,1020.92
2019-02-27T08:13:48.686Z,1020.92
2019-02-27T08:14:48.700Z,1020.90
2019-02-27T08:15:49.160Z,1020.90
2019-02-27T08:16:48.663Z,1020.94
2019-02-27T08:17:48.731Z,1020.95
2019-02-27T08:18:48.683Z,1020.95
2019-02-27T08:19:48.627Z,1020.96
2019-02-27T08:20:48.610Z,1020.95
2019-02-27T08:21:48.599Z,1020.98
2019-02-27T08:22:49.684Z,1020.95
2019-02-27T08:23:48.588Z,1020.95
2019-02-27T08:24:48.624Z,1020.94
2019-02-27T08:25:48.556Z,1020.97
2019-02-27T08:26:49.201Z,1020.96
2019-02-27T08:27:48.557Z,1020.94
2019-02-27T08:28:48.533Z,1021.01
2019-02-27T08:29:48.525Z,1020.98
2019-02-27T08:30:48.581Z,1021.05
2019-02-27T08:31:48.498Z,1021.00
2019-02-27T08:32:48.490Z,1020.99
2019-02-27T08:33:48.485Z,1020.98
2019-02-27T08:34:48.475Z,1020.97
2019-02-27T08:35:48.498Z,1020.98
2019-02-27T08:36:48.457Z,1020.99
2019-02-27T08:37:48.482Z,1020.99
2019-02-27T08:38:48.420Z,1020.96
2019-02-27T08:39:48.469Z,1020.95
2019-02-27T08:40:48.525Z,1020.95
2019-02-27T08:41:48.378Z,1020.97
2019-02-27T08:42:48.379Z,1020.92
2019-02-27T08:43:48.362Z,1020.94
2019-02-27T08:44:48.537Z,1020.93
2019-02-27T08:45:48.421Z,1020.86
2019-02-27T08:46:48.342Z,1020.87
2019-02-27T08:47:48.383Z,1020.90
2019-02-27T08:48:50.191Z,1020.89
2019-02-27T08:49:49.184Z,1020.89
2019-02-27T08:50:48.387Z,1020.89
2019-02-27T08:51:48.286Z,1020.89
2019-02-27T08:52:51.518Z,1020.88
2019-02-27T08:53:48.259Z,1020.86
2019-02-27T08:54:48.290Z,1020.83
2019-02-27T08:55:48.261Z,1020.83
2019-02-27T08:56:48.226Z,1020.81
2019-02-27T08:57:49.877Z,1020.75
2019-02-27T08:58:48.212Z,1020.75
2019-02-27T08:59:48.179Z,1020.73
2019-02-27T09:00:48.177Z,1020.70
2019-02-27T09:01:48.176Z,1020.72
2019-02-27T09:02:48.194Z,1020.75
2019-02-27T09:03:48.135Z,1020.65
2019-02-27T09:04:48.150Z,1020.68
2019-02-27T09:05:48.148Z,1020.67
2019-02-27T09:06:48.123Z,1020.63
2019-02-27T09:07:48.108Z,1020.57
2019-02-27T09:08:48.155Z,1020.64
2019-02-27T09:09:51.416Z,1020.59
2019-02-27T09:10:48.127Z,1020.61
2019-02-27T09:11:48.063Z,1020.66
2019-02-27T09:12:48.854Z,1020.64
2019-02-27T09:13:48.094Z,1020.65
2019-02-27T09:14:48.037Z,1020.67
2019-02-27T09:15:48.076Z,1020.66
2019-02-27T09:16:48.018Z,1020.63
2019-02-27T09:17:47.986Z,1020.59
2019-02-27T09:18:48.024Z,1020.51
2019-02-27T09:19:47.988Z,1020.46
2019-02-27T09:20:47.949Z,1020.43
2019-02-27T09:21:47.977Z,1020.42
2019-02-27T09:22:47.931Z,1020.38
2019-02-27T09:23:47.911Z,1020.40
2019-02-27T09:24:47.908Z,1020.36
2019-02-27T09:25:47.893Z,1020.34
2019-02-27T09:26:47.951Z,1020.35
2019-02-27T09:27:47.940Z,1020.33
2019-02-27T09:28:47.885Z,1020.33
2019-02-27T09:29:49.376Z,1020.34
2019-02-27T09:30:47.837Z,1020.36
2019-02-27T09:31:50.790Z,1020.36
2019-02-27T09:32:47.943Z,1020.37
2019-02-27T09:33:47.824Z,1020.32
2019-02-27T09:34:47.800Z,1020.32
2019-02-27T09:35:47.772Z,1020.27
2019-02-27T09:36:49.171Z,1020.30
2019-02-27T09:37:48.467Z,1020.30
2019-02-27T09:38:47.807Z,1020.29
2019-02-27T09:39:47.746Z,1020.30
2019-02-27T09:40:47.741Z,1020.22
2019-02-27T09:41:47.758Z,1020.27
2019-02-27T09:42:50.234Z,1020.26
2019-02-27T09:43:48.697Z,1020.22
2019-02-27T09:44:47.675Z,1020.17
2019-02-27T09:45:47.677Z,1020.21
2019-02-27T09:46:49.916Z,1020.22
2019-02-27T09:47:47.659Z,1020.21
2019-02-27T09:48:47.816Z,1020.17
2019-02-27T09:49:47.648Z,1020.20
2019-02-27T09:50:48.946Z,1020.17
2019-02-27T09:51:47.641Z,1020.17
2019-02-27T09:52:47.593Z,1020.15
2019-02-27T09:53:47.571Z,1020.13
2019-02-27T09:54:47.689Z,1020.16
2019-02-27T09:55:47.568Z,1020.16
2019-02-27T09:56:47.543Z,1020.07
2019-02-27T09:57:47.540Z,1020.08
2019-02-27T09:58:47.525Z,1020.08
2019-02-27T09:59:47.511Z,1020.09
2019-02-27T10:00:47.562Z,1020.06
2019-02-27T10:01:47.487Z,1020.09
2019-02-27T10:02:47.471Z,1020.10
2019-02-27T10:03:47.496Z,1020.07
2019-02-27T10:04:47.453Z,1020.09
2019-02-27T10:05:47.791Z,1020.13
2019-02-27T10:06:47.485Z,1020.06
2019-02-27T10:07:48.461Z,1020.11
2019-02-27T10:08:47.414Z,1020.08
2019-02-27T10:09:47.415Z,1020.06
2019-02-27T10:10:47.377Z,1020.04
2019-02-27T10:11:47.369Z,1020.02
2019-02-27T10:12:47.408Z,1020.07
2019-02-27T10:13:47.355Z,1020.02
2019-02-27T10:14:47.908Z,1020.00
2019-02-27T10:15:47.336Z,1020.00
2019-02-27T10:16:47.314Z,1019.93
2019-02-27T10:17:47.331Z,1019.95
2019-02-27T10:18:47.342Z,1019.92
2019-02-27T10:19:47.297Z,1019.93
2019-02-27T10:20:47.268Z,1019.94
2019-02-27T10:21:47.614Z,1019.86
2019-02-27T10:22:47.270Z,1019.85
2019-02-27T10:23:47.309Z,1019.89
2019-02-27T10:24:47.236Z,1019.80
2019-02-27T10:25:47.242Z,1019.79
2019-02-27T10:26:47.261Z,1019.75
2019-02-27T10:27:47.432Z,1019.74
2019-02-27T10:28:47.281Z,1019.75
2019-02-27T10:29:47.899Z,1019.70
2019-02-27T10:30:50.042Z,1019.73
2019-02-27T10:31:47.151Z,1019.72
2019-02-27T10:32:47.168Z,1019.69
2019-02-27T10:33:47.160Z,1019.69
2019-02-27T10:34:47.123Z,1019.68
2019-02-27T10:35:47.100Z,1019.69
2019-02-27T10:36:47.790Z,1019.64
2019-02-27T10:37:50.450Z,1019.58
2019-02-27T10:38:47.101Z,1019.57
2019-02-27T10:39:47.123Z,1019.51
2019-02-27T10:40:47.051Z,1019.48
2019-02-27T10:41:49.749Z,1019.47
2019-02-27T10:42:47.087Z,1019.50
2019-02-27T10:43:47.027Z,1019.45
2019-02-27T10:44:46.996Z,1019.42
2019-02-27T10:45:49.313Z,1019.41
2019-02-27T10:46:46.984Z,1019.45
2019-02-27T10:47:47.002Z,1019.39
2019-02-27T10:48:47.628Z,1019.42
2019-02-27T10:49:46.945Z,1019.43
2019-02-27T10:50:46.932Z,1019.37
2019-02-27T10:51:46.923Z,1019.42
2019-02-27T10:52:46.910Z,1019.40
2019-02-27T10:53:46.955Z,1019.36
2019-02-27T10:54:46.881Z,1019.30
2019-02-27T10:55:49.335Z,1019.33
2019-02-27T10:56:46.898Z,1019.28
2019-02-27T10:57:46.898Z,1019.30
2019-02-27T10:58:47.647Z,1019.24
2019-02-27T10:59:46.904Z,1019.25
2019-02-27T11:00:46.842Z,1019.22
2019-02-27T11:01:46.808Z,1019.22
2019-02-27T11:02:47.908Z,1019.15
2019-02-27T11:03:46.943Z,1019.14
2019-02-27T11:04:46.795Z,1019.11
2019-02-27T11:05:46.760Z,1019.11
2019-02-27T11:06:46.769Z,1019.13
2019-02-27T11:07:46.765Z,1019.06
2019-02-27T11:08:46.741Z,1019.09
2019-02-27T11:09:46.791Z,1019.08
2019-02-27T11:10:46.728Z,1019.07
2019-02-27T11:11:48.641Z,1019.10
2019-02-27T11:12:46.697Z,1019.05
2019-02-27T11:13:48.454Z,1019.03
2019-02-27T11:14:47.716Z,1019.02
2019-02-27T11:15:46.735Z,1018.97
2019-02-27T11:16:46.641Z,1018.97
2019-02-27T11:17:46.633Z,1018.99
2019-02-27T11:18:46.680Z,1018.98
2019-02-27T11:19:46.626Z,1018.92
2019-02-27T11:20:46.638Z,1018.95
2019-02-27T11:21:46.642Z,1018.92
2019-02-27T11:22:46.592Z,1018.93
2019-02-27T11:23:46.561Z,1018.89
2019-02-27T11:24:49.035Z,1018.90
2019-02-27T11:25:46.535Z,1018.90
2019-02-27T11:26:46.532Z,1018.84
2019-02-27T11:27:46.504Z,1018.89
2019-02-27T11:28:47.846Z,1018.84
2019-02-27T11:29:46.511Z,1018.83
2019-02-27T11:30:46.615Z,1018.88
2019-02-27T11:31:46.466Z,1018.85
2019-02-27T11:32:46.526Z,1018.79
2019-02-27T11:33:46.462Z,1018.82
2019-02-27T11:34:48.430Z,1018.83
2019-02-27T11:35:46.417Z,1018.81
2019-02-27T11:36:46.466Z,1018.80
2019-02-27T11:37:47.537Z,1018.80
2019-02-27T11:38:46.427Z,1018.79
2019-02-27T11:39:46.417Z,1018.72
2019-02-27T11:40:46.789Z,1018.75
2019-02-27T11:41:48.482Z,1018.68
2019-02-27T11:42:46.358Z,1018.67
2019-02-27T11:43:46.331Z,1018.59
2019-02-27T11:44:49.451Z,1018.59
2019-02-27T11:45:46.315Z,1018.58
2019-02-27T11:46:46.358Z,1018.56
2019-02-27T11:47:48.125Z,1018.51
2019-02-27T11:48:46.436Z,1018.51
2019-02-27T11:49:46.273Z,1018.47
2019-02-27T11:50:46.317Z,1018.50
2019-02-27T11:51:46.433Z,1018.49
2019-02-27T11:52:49.046Z,1018.41
2019-02-27T11:53:46.219Z,1018.40
2019-02-27T11:54:46.246Z,1018.41
2019-02-27T11:55:47.101Z,1018.40
2019-02-27T11:56:47.566Z,1018.34
2019-02-27T11:57:46.182Z,1018.39
2019-02-27T11:58:46.180Z,1018.34
2019-02-27T11:59:46.960Z,1018.33
2019-02-27T12:00:46.262Z,1018.31
2019-02-27T12:01:46.155Z,1018.33
2019-02-27T12:02:46.131Z,1018.29
2019-02-27T12:03:46.571Z,1018.23
2019-02-27T12:04:46.182Z,1018.25
2019-02-27T12:05:46.925Z,1018.23